Time;durP1;ratioP1;P1;durP2;ratioP2;P2;SDS_P1;SDS_P2;PMS_P1;PMS_P2;Temp;Humidity;BMP_temperature;BMP_pressure;BME280_temperature;BME280_humidity;BME280_pressure;Samples;Min_cycle;Max_cycle;Signal;HPM_P1;HPM_P2
2021/12/11 00:02:09;;;;;;;6.13;4.32;;;23.20;35.80;;;;;;5023032;28;20561;-45
2021/12/11 00:04:39;;;;;;;5.53;4.40;;;23.20;35.80;;;;;;5022423;28;20026;-45
2021/12/11 00:07:08;;;;;;;5.20;3.80;;;23.20;35.80;;;;;;5023015;28;20374;-45
2021/12/11 00:09:48;;;;;;;5.00;3.90;;;23.20;35.90;;;;;;5022831;28;20038;-45
2021/12/11 00:12:22;;;;;;;4.75;3.75;;;23.20;35.90;;;;;;5023315;28;20735;-45
2021/12/11 00:14:56;;;;;;;4.20;3.15;;;23.20;35.90;;;;;;5022923;28;20124;-45
2021/12/11 00:17:29;;;;;;;5.30;4.05;;;23.10;35.90;;;;;;5023854;28;20029;-45
2021/12/11 00:19:55;;;;;;;4.85;3.75;;;23.10;35.90;;;;;;5024254;28;20659;-45
2021/12/11 00:22:26;;;;;;;5.25;4.38;;;23.10;35.90;;;;;;5023485;28;20137;-45
2021/12/11 00:24:57;;;;;;;5.10;3.38;;;23.10;35.90;;;;;;5023539;28;20109;-45
2021/12/11 00:27:26;;;;;;;5.13;3.90;;;23.10;35.90;;;;;;5023238;28;20029;-46
2021/12/11 00:29:52;;;;;;;5.13;3.85;;;23.10;35.90;;;;;;5023417;28;20050;-45
2021/12/11 00:32:31;;;;;;;5.22;3.90;;;23.10;35.90;;;;;;5023120;28;20062;-45
2021/12/11 00:35:10;;;;;;;5.15;3.90;;;23.10;35.90;;;;;;5023407;28;20591;-45
2021/12/11 00:37:36;;;;;;;5.25;3.97;;;23.10;35.90;;;;;;5023326;28;20033;-45
2021/12/11 00:40:17;;;;;;;4.75;3.60;;;23.00;35.80;;;;;;5023627;28;20478;-45
2021/12/11 00:42:56;;;;;;;4.47;3.55;;;23.00;35.90;;;;;;5023770;28;20036;-45
2021/12/11 00:45:27;;;;;;;4.75;3.72;;;23.00;35.90;;;;;;5023716;28;20061;-45
2021/12/11 00:48:04;;;;;;;4.57;3.70;;;23.00;35.90;;;;;;5024046;28;20029;-45
2021/12/11 00:50:40;;;;;;;5.22;3.83;;;22.90;35.90;;;;;;5033344;28;20082;-45
2021/12/11 00:53:41;;;;;;;4.63;3.50;;;22.90;35.90;;;;;;5043575;28;20033;-45
2021/12/11 00:56:14;;;;;;;4.82;3.83;;;22.90;35.90;;;;;;5024936;28;20040;-45
2021/12/11 00:58:42;;;;;;;4.75;3.95;;;22.90;35.90;;;;;;5023231;28;20429;-45
2021/12/11 01:01:15;;;;;;;4.90;3.80;;;22.90;35.90;;;;;;5023154;28;20099;-45
2021/12/11 01:03:57;;;;;;;5.05;3.58;;;22.90;35.90;;;;;;5020896;28;20241;-45
2021/12/11 01:06:31;;;;;;;4.88;4.15;;;22.90;35.90;;;;;;5022725;28;20060;-45
2021/12/11 01:09:11;;;;;;;4.68;3.83;;;22.80;35.80;;;;;;5022681;28;20107;-45
2021/12/11 01:11:41;;;;;;;5.10;3.80;;;22.80;35.90;;;;;;5022920;28;20033;-45
2021/12/11 01:14:30;;;;;;;5.55;4.30;;;22.80;35.90;;;;;;5023397;28;20041;-45
2021/12/11 01:17:21;;;;;;;4.68;3.70;;;22.80;35.90;;;;;;5027437;28;20040;-47
2021/12/11 01:19:51;;;;;;;4.72;3.60;;;22.80;35.90;;;;;;5027287;28;20056;-47
2021/12/11 01:22:35;;;;;;;4.78;3.80;;;22.80;35.90;;;;;;5027076;28;20040;-46
2021/12/11 01:25:04;;;;;;;5.38;4.30;;;22.80;35.90;;;;;;5027186;28;20029;-45
2021/12/11 01:27:30;;;;;;;4.63;3.50;;;22.80;35.90;;;;;;5026788;28;20035;-46
2021/12/11 01:29:58;;;;;;;5.45;4.00;;;22.80;35.90;;;;;;5025714;28;20021;-45
2021/12/11 01:32:27;;;;;;;5.28;4.22;;;22.70;35.90;;;;;;5024443;28;20656;-46
2021/12/11 01:34:55;;;;;;;5.03;3.95;;;22.70;35.90;;;;;;5026886;28;20045;-47
2021/12/11 01:37:21;;;;;;;4.70;4.00;;;22.70;35.90;;;;;;5015753;28;20065;-45
2021/12/11 01:39:49;;;;;;;5.30;4.00;;;22.70;35.90;;;;;;5013398;28;20032;-46
2021/12/11 01:42:29;;;;;;;4.70;3.97;;;22.70;35.90;;;;;;5026507;28;20068;-46
2021/12/11 01:44:57;;;;;;;4.65;3.60;;;22.70;35.90;;;;;;5026610;28;20441;-45
2021/12/11 01:47:29;;;;;;;5.10;4.10;;;22.70;35.90;;;;;;5026771;28;20026;-46
2021/12/11 01:49:59;;;;;;;5.00;4.03;;;22.60;35.90;;;;;;5031979;28;20032;-45
2021/12/11 01:52:38;;;;;;;4.65;3.72;;;22.60;35.90;;;;;;5046617;28;20252;-47
2021/12/11 01:55:39;;;;;;;5.10;4.00;;;22.60;35.90;;;;;;5028849;28;20084;-47
2021/12/11 01:58:09;;;;;;;5.28;4.00;;;22.60;35.90;;;;;;5006540;28;20038;-45
2021/12/11 02:00:46;;;;;;;5.10;3.80;;;22.60;35.90;;;;;;5005780;28;20393;-46
2021/12/11 02:03:18;;;;;;;4.63;3.53;;;22.60;35.90;;;;;;5005694;28;20030;-46
2021/12/11 02:05:44;;;;;;;5.20;4.07;;;22.60;35.90;;;;;;5006866;28;20502;-46
2021/12/11 02:08:14;;;;;;;4.20;3.20;;;22.60;35.90;;;;;;5006857;28;20045;-47
2021/12/11 02:10:53;;;;;;;4.70;3.70;;;22.60;35.90;;;;;;5019340;28;20126;-46
2021/12/11 02:13:34;;;;;;;5.45;4.13;;;22.60;35.90;;;;;;5025890;28;20573;-45
2021/12/11 02:16:00;;;;;;;4.70;3.60;;;22.60;35.90;;;;;;5025854;28;20049;-46
2021/12/11 02:18:35;;;;;;;4.50;3.25;;;22.60;35.90;;;;;;5025737;28;20041;-46
2021/12/11 02:21:25;;;;;;;5.05;3.78;;;22.50;35.90;;;;;;5025536;28;20160;-46
2021/12/11 02:24:04;;;;;;;4.97;3.97;;;22.50;35.90;;;;;;5023843;28;20033;-46
2021/12/11 02:26:32;;;;;;;5.28;4.03;;;22.50;36.00;;;;;;5004797;28;20034;-45
2021/12/11 02:29:07;;;;;;;4.45;3.55;;;22.50;36.00;;;;;;5006293;28;20519;-46
2021/12/11 02:31:51;;;;;;;5.50;4.00;;;22.50;36.00;;;;;;5005580;28;20091;-45
2021/12/11 02:34:38;;;;;;;5.10;3.80;;;22.50;36.00;;;;;;5006305;28;20387;-46
2021/12/11 02:37:38;;;;;;;4.50;3.40;;;22.50;35.90;;;;;;5014216;28;20572;-45
2021/12/11 02:40:10;;;;;;;5.55;4.00;;;22.50;35.90;;;;;;5023756;28;20033;-46
2021/12/11 02:42:50;;;;;;;4.82;3.78;;;22.50;36.00;;;;;;5025511;28;20038;-47
2021/12/11 02:45:35;;;;;;;4.80;3.65;;;22.50;36.00;;;;;;5025201;28;20030;-46
2021/12/11 02:48:29;;;;;;;5.55;4.10;;;22.40;35.90;;;;;;5024138;28;20050;-46
2021/12/11 02:51:28;;;;;;;5.25;3.92;;;22.40;35.90;;;;;;5038020;28;20044;-47
2021/12/11 02:54:18;;;;;;;5.03;3.78;;;22.50;36.00;;;;;;5043465;28;20559;-46
2021/12/11 02:56:52;;;;;;;5.10;3.67;;;22.40;35.90;;;;;;5005807;28;20041;-46
2021/12/11 02:59:23;;;;;;;5.35;4.00;;;22.40;35.90;;;;;;5011122;28;20022;-46
2021/12/11 03:02:08;;;;;;;5.53;4.10;;;22.40;35.90;;;;;;5025085;28;20041;-46
2021/12/11 03:04:36;;;;;;;4.75;3.80;;;22.40;35.90;;;;;;5025328;28;20111;-46
2021/12/11 03:07:05;;;;;;;5.40;4.07;;;22.30;35.90;;;;;;5024510;28;20037;-47
2021/12/11 03:09:34;;;;;;;5.72;4.38;;;22.30;35.90;;;;;;5025204;28;20095;-47
2021/12/11 03:12:04;;;;;;;4.95;3.80;;;22.30;35.90;;;;;;5023764;28;20096;-48
2021/12/11 03:14:29;;;;;;;5.28;3.95;;;22.40;35.90;;;;;;5024453;28;20401;-47
2021/12/11 03:16:56;;;;;;;5.28;4.30;;;22.30;35.90;;;;;;5024065;28;20029;-46
2021/12/11 03:19:29;;;;;;;5.18;4.15;;;22.30;35.90;;;;;;5024487;28;20140;-46
2021/12/11 03:21:58;;;;;;;4.75;3.97;;;22.30;36.00;;;;;;5022054;28;20041;-46
2021/12/11 03:24:27;;;;;;;5.85;4.15;;;22.30;36.00;;;;;;5021486;28;20070;-46
2021/12/11 03:26:54;;;;;;;5.15;3.75;;;22.30;36.60;;;;;;5004954;28;20113;-47
2021/12/11 03:29:21;;;;;;;5.95;4.65;;;22.30;35.90;;;;;;5005207;28;20196;-47
2021/12/11 03:31:48;;;;;;;5.75;4.13;;;22.30;35.90;;;;;;5003311;28;20594;-46
2021/12/11 03:34:19;;;;;;;5.45;4.00;;;22.30;36.00;;;;;;5005215;28;20034;-46
2021/12/11 03:36:45;;;;;;;5.25;4.38;;;22.30;36.00;;;;;;5012555;28;20033;-46
2021/12/11 03:39:25;;;;;;;5.03;3.90;;;22.30;36.00;;;;;;5023458;28;20049;-47
2021/12/11 03:41:53;;;;;;;5.65;4.47;;;22.30;36.00;;;;;;5024517;28;20056;-46
2021/12/11 03:44:19;;;;;;;5.18;3.88;;;22.30;36.00;;;;;;5022863;28;20017;-46
2021/12/11 03:46:48;;;;;;;5.60;4.45;;;22.30;36.00;;;;;;5023994;28;20030;-46
2021/12/11 03:49:17;;;;;;;5.32;4.10;;;22.20;35.90;;;;;;5023421;28;20068;-46
2021/12/11 03:51:46;;;;;;;5.72;4.68;;;22.20;35.90;;;;;;5003371;28;20042;-47
2021/12/11 03:54:15;;;;;;;5.72;4.43;;;22.30;36.00;;;;;;5003670;28;20034;-46
2021/12/11 03:56:42;;;;;;;4.97;4.00;;;22.20;35.90;;;;;;5023496;28;20088;-45
2021/12/11 03:59:10;;;;;;;5.97;4.53;;;22.20;35.90;;;;;;5024438;28;20079;-47
2021/12/11 04:01:43;;;;;;;5.90;4.53;;;22.20;35.90;;;;;;5006403;28;20029;-46
2021/12/11 04:04:37;;;;;;;5.22;3.92;;;22.20;35.90;;;;;;5023785;28;20022;-47
2021/12/11 04:07:07;;;;;;;5.80;4.60;;;22.20;35.90;;;;;;5023591;28;20572;-47
2021/12/11 04:09:33;;;;;;;5.95;4.47;;;22.20;35.90;;;;;;5024262;28;20179;-46
2021/12/11 04:12:00;;;;;;;6.10;4.30;;;22.20;36.00;;;;;;5023904;28;20064;-46
2021/12/11 04:14:29;;;;;;;5.63;4.10;;;22.20;35.90;;;;;;5022167;28;20025;-46
2021/12/11 04:16:56;;;;;;;5.57;4.20;;;22.20;35.90;;;;;;5023382;28;20095;-46
2021/12/11 04:19:22;;;;;;;5.50;4.45;;;22.20;35.90;;;;;;5021061;28;20029;-46
2021/12/11 04:21:49;;;;;;;5.80;4.55;;;22.20;36.00;;;;;;5023869;28;20064;-47
2021/12/11 04:24:19;;;;;;;5.68;4.50;;;22.20;36.00;;;;;;5023738;28;20339;-46
2021/12/11 04:26:49;;;;;;;5.00;4.05;;;22.20;35.90;;;;;;5024001;28;20087;-45
2021/12/11 04:29:15;;;;;;;5.10;4.20;;;22.20;36.00;;;;;;5023784;28;20034;-47
2021/12/11 04:31:43;;;;;;;5.43;4.32;;;22.20;35.90;;;;;;5024367;28;20068;-47
2021/12/11 04:34:12;;;;;;;5.88;4.20;;;22.20;36.00;;;;;;5024037;28;20029;-47
2021/12/11 04:36:46;;;;;;;5.38;4.28;;;22.20;36.00;;;;;;5024187;28;20136;-46
2021/12/11 04:39:16;;;;;;;6.30;4.35;;;22.20;36.00;;;;;;5023558;28;20079;-46
2021/12/11 04:41:56;;;;;;;5.72;4.60;;;22.10;35.90;;;;;;5021437;28;20030;-46
2021/12/11 04:44:32;;;;;;;5.45;3.83;;;22.10;36.00;;;;;;5023299;28;20254;-45
2021/12/11 04:46:58;;;;;;;5.28;4.20;;;22.10;36.00;;;;;;5022751;28;20090;-46
2021/12/11 04:49:35;;;;;;;5.45;4.45;;;22.10;36.00;;;;;;5026842;28;20025;-47
2021/12/11 04:52:14;;;;;;;5.43;4.05;;;22.10;36.00;;;;;;5045279;28;20100;-45
2021/12/11 04:54:54;;;;;;;5.72;4.35;;;22.10;36.00;;;;;;5010071;28;20029;-47
2021/12/11 05:00:17;;;;;;;5.38;3.88;;;22.10;36.00;;;;;;5027853;28;20048;-46
2021/12/11 05:10:34;;;;;;;5.40;4.07;;;22.10;36.00;;;;;;5026938;28;20079;-45
2021/12/11 05:13:00;;;;;;;5.95;4.50;;;22.10;36.00;;;;;;5026214;28;20025;-46
2021/12/11 05:15:36;;;;;;;5.95;4.35;;;22.10;36.10;;;;;;5026752;28;20113;-47
2021/12/11 05:18:07;;;;;;;5.72;4.53;;;22.00;35.90;;;;;;5026578;28;20026;-46
2021/12/11 05:20:35;;;;;;;5.38;4.18;;;22.00;36.00;;;;;;5025709;28;20713;-46
2021/12/11 05:23:00;;;;;;;5.60;4.28;;;22.00;35.90;;;;;;5026742;28;20756;-45
2021/12/11 05:25:27;;;;;;;6.07;4.55;;;22.00;35.90;;;;;;5026180;28;20027;-46
2021/12/11 05:27:53;;;;;;;4.80;3.67;;;22.00;35.90;;;;;;5027169;28;20040;-45
2021/12/11 05:30:28;;;;;;;5.60;4.35;;;22.00;35.90;;;;;;5027341;28;20060;-45
2021/12/11 05:32:56;;;;;;;5.35;3.88;;;22.00;36.00;;;;;;5026778;28;20025;-46
2021/12/11 05:35:23;;;;;;;5.55;4.15;;;22.00;36.00;;;;;;5026508;28;20535;-46
2021/12/11 05:37:49;;;;;;;6.07;4.60;;;22.00;36.00;;;;;;5025436;28;20033;-47
2021/12/11 05:40:18;;;;;;;5.53;3.95;;;22.00;36.00;;;;;;5026452;28;20056;-47
2021/12/11 05:42:44;;;;;;;4.85;3.55;;;22.00;36.00;;;;;;5025171;28;20043;-47
2021/12/11 05:45:10;;;;;;;5.22;4.07;;;22.00;36.00;;;;;;5026412;28;20466;-46
2021/12/11 05:47:36;;;;;;;5.80;4.60;;;22.00;36.00;;;;;;5026103;28;20083;-46
2021/12/11 05:50:04;;;;;;;6.25;4.40;;;22.00;36.00;;;;;;5032998;28;20021;-46
2021/12/11 05:52:30;;;;;;;5.07;3.65;;;22.00;36.00;;;;;;5027751;28;20169;-46
2021/12/11 05:54:56;;;;;;;5.57;3.60;;;21.90;36.00;;;;;;5026455;28;20057;-46
2021/12/11 05:57:22;;;;;;;6.63;4.80;;;22.00;36.00;;;;;;5025175;28;20096;-46
2021/12/11 05:59:49;;;;;;;5.50;3.97;;;21.90;36.00;;;;;;5025822;28;20037;-45
2021/12/11 06:02:23;;;;;;;5.75;4.40;;;21.90;36.00;;;;;;5024238;28;20060;-46
2021/12/11 06:04:52;;;;;;;5.65;4.40;;;22.00;36.00;;;;;;5025891;28;20769;-46
2021/12/11 06:07:20;;;;;;;5.35;4.18;;;21.90;36.00;;;;;;5024438;28;20033;-46
2021/12/11 06:09:52;;;;;;;6.13;4.45;;;21.90;36.00;;;;;;5025257;28;20025;-47
2021/12/11 06:12:19;;;;;;;;;;;21.90;36.10;;;;;;5025691;28;20025;-48
2021/12/11 06:14:47;;;;;;;5.28;3.47;;;21.90;36.10;;;;;;5024770;28;19909;-46
2021/12/11 06:17:16;;;;;;;6.13;4.45;;;21.90;36.20;;;;;;5025078;28;20179;-47
2021/12/11 06:19:49;;;;;;;6.15;3.95;;;21.90;36.30;;;;;;5025502;28;20022;-46
2021/12/11 06:22:16;;;;;;;8.13;5.32;;;21.90;36.30;;;;;;5024840;28;20441;-46
2021/12/11 06:24:42;;;;;;;5.72;4.28;;;21.90;36.40;;;;;;5026429;28;20581;-46
2021/12/11 06:27:07;;;;;;;5.80;3.78;;;21.90;36.40;;;;;;5025665;28;20040;-46
2021/12/11 06:29:33;;;;;;;6.88;4.40;;;22.00;36.50;;;;;;5025985;28;20068;-47
2021/12/11 06:31:59;;;;;;;5.63;4.30;;;22.00;36.60;;;;;;5025270;28;20037;-46
2021/12/11 06:34:25;;;;;;;5.20;4.07;;;22.00;36.60;;;;;;5026046;28;20092;-45
2021/12/11 06:36:52;;;;;;;6.53;4.38;;;22.00;36.60;;;;;;5017819;28;20083;-46
2021/12/11 06:39:24;;;;;;;5.30;3.63;;;22.10;36.70;;;;;;5016649;28;20441;-46
2021/12/11 06:41:54;;;;;;;4.93;3.53;;;22.10;36.60;;;;;;5022809;28;20026;-45
2021/12/11 06:44:27;;;;;;;5.03;3.42;;;22.20;36.60;;;;;;5023765;28;20021;-45
2021/12/11 06:46:54;;;;;;;6.82;4.00;;;22.20;36.60;;;;;;5023277;28;20033;-45
2021/12/11 06:49:21;;;;;;;7.43;4.07;;;22.30;36.70;;;;;;5023828;28;20710;-47
2021/12/11 06:51:47;;;;;;;5.70;4.05;;;22.30;36.60;;;;;;5024870;28;20028;-47
2021/12/11 06:54:13;;;;;;;6.18;4.20;;;22.40;36.70;;;;;;5025486;28;20718;-45
2021/12/11 06:56:40;;;;;;;5.70;4.05;;;22.50;36.60;;;;;;5019312;28;20041;-45
2021/12/11 06:59:06;;;;;;;5.63;4.38;;;22.50;36.50;;;;;;5019129;28;20028;-45
2021/12/11 07:01:32;;;;;;;6.03;4.20;;;22.60;36.40;;;;;;5020708;28;20100;-45
2021/12/11 07:03:59;;;;;;;5.88;4.22;;;22.70;36.30;;;;;;5023532;28;20135;-45
2021/12/11 07:06:27;;;;;;;6.88;4.93;;;22.70;36.20;;;;;;5023987;28;20481;-45
2021/12/11 07:08:54;;;;;;;5.40;4.10;;;22.80;36.20;;;;;;5021756;28;20043;-46
2021/12/11 07:11:22;;;;;;;7.75;4.45;;;22.80;36.20;;;;;;5018033;28;20030;-46
2021/12/11 07:13:48;;;;;;;7.53;4.68;;;22.90;36.30;;;;;;5021660;28;20029;-46
2021/12/11 07:16:14;;;;;;;7.40;4.80;;;22.90;36.20;;;;;;5024007;28;20477;-46
2021/12/11 07:18:40;;;;;;;6.22;4.47;;;23.00;36.10;;;;;;5022763;28;20030;-45
2021/12/11 07:21:07;;;;;;;7.20;5.22;;;23.00;36.20;;;;;;5020774;28;20028;-45
2021/12/11 07:23:33;;;;;;;7.32;5.22;;;23.10;36.40;;;;;;5021536;28;20036;-46
2021/12/11 07:26:01;;;;;;;9.15;5.40;;;23.20;36.40;;;;;;5029176;28;20052;-46
2021/12/11 07:28:27;;;;;;;7.00;4.97;;;23.20;36.50;;;;;;5017784;28;20051;-47
2021/12/11 07:30:57;;;;;;;7.47;5.53;;;23.30;36.50;;;;;;5016094;28;20025;-47
2021/12/11 07:33:23;;;;;;;7.57;5.65;;;23.30;36.30;;;;;;5021581;28;20521;-47
2021/12/11 07:35:50;;;;;;;7.55;4.75;;;23.40;36.30;;;;;;5023537;28;20037;-47
2021/12/11 07:38:16;;;;;;;6.97;4.68;;;23.40;36.30;;;;;;5010986;28;20028;-46
2021/12/11 07:40:53;;;;;;;7.57;5.28;;;23.50;36.30;;;;;;5003664;28;20034;-45
2021/12/11 07:43:22;;;;;;;6.47;4.80;;;23.50;36.30;;;;;;5003569;28;20066;-47
2021/12/11 07:45:48;;;;;;;7.32;4.97;;;23.50;36.20;;;;;;5010806;28;20029;-46
2021/12/11 07:48:15;;;;;;;6.47;4.43;;;23.60;36.10;;;;;;5023382;28;20033;-46
2021/12/11 07:50:41;;;;;;;7.45;4.85;;;23.60;36.10;;;;;;5026415;28;20809;-46
2021/12/11 07:53:07;;;;;;;7.13;4.82;;;23.60;36.00;;;;;;5003778;28;20137;-46
2021/12/11 07:55:33;;;;;;;8.32;5.03;;;23.60;36.00;;;;;;5009572;28;20108;-48
2021/12/11 07:58:02;;;;;;;6.28;4.45;;;23.60;36.00;;;;;;5022579;28;20037;-46
2021/12/11 08:00:28;;;;;;;5.68;4.20;;;23.70;36.00;;;;;;5022584;28;20486;-46
2021/12/11 08:02:54;;;;;;;7.95;4.80;;;23.70;36.10;;;;;;5020568;28;20032;-46
2021/12/11 08:05:22;;;;;;;7.10;4.63;;;23.70;36.20;;;;;;5023078;28;20100;-46
2021/12/11 08:07:48;;;;;;;7.55;5.32;;;23.80;36.20;;;;;;5023163;28;20021;-50
2021/12/11 08:10:17;;;;;;;7.15;4.95;;;23.80;36.40;;;;;;5020631;28;20691;-46
2021/12/11 08:12:44;;;;;;;8.32;5.40;;;23.80;36.40;;;;;;5020575;28;20035;-45
2021/12/11 08:15:12;;;;;;;7.43;5.38;;;23.90;36.60;;;;;;5019276;28;20510;-46
2021/12/11 08:17:38;;;;;;;8.68;5.72;;;24.00;36.40;;;;;;5014704;28;20446;-51
2021/12/11 08:20:10;;;;;;;8.90;5.35;;;24.00;36.50;;;;;;5025118;28;20049;-47
2021/12/11 08:22:36;;;;;;;7.57;5.28;;;24.00;36.40;;;;;;5029424;28;20091;-47
2021/12/11 08:25:04;;;;;;;7.60;5.68;;;24.10;36.50;;;;;;5033327;28;20733;-47
2021/12/11 08:27:30;;;;;;;5.70;4.50;;;24.20;36.50;;;;;;5032058;28;20064;-45
2021/12/11 08:29:56;;;;;;;6.35;4.97;;;24.20;36.40;;;;;;5032364;28;20040;-45
2021/12/11 08:32:22;;;;;;;6.70;5.00;;;24.20;36.50;;;;;;5029615;28;20425;-44
2021/12/11 08:34:49;;;;;;;6.68;4.72;;;24.30;36.50;;;;;;5029897;28;20033;-45
2021/12/11 08:37:17;;;;;;;7.18;4.75;;;24.30;36.30;;;;;;5012289;28;20111;-47
2021/12/11 08:39:43;;;;;;;6.68;4.22;;;24.30;36.30;;;;;;5029169;28;20612;-47
2021/12/11 08:42:14;;;;;;;7.13;4.93;;;24.40;36.20;;;;;;5029376;28;20091;-46
2021/12/11 08:44:49;;;;;;;6.07;4.35;;;24.40;36.10;;;;;;5030660;28;20026;-46
2021/12/11 08:47:15;;;;;;;6.82;4.80;;;24.50;36.10;;;;;;5029228;28;20029;-46
2021/12/11 08:49:42;;;;;;;7.68;5.07;;;24.50;36.00;;;;;;5033602;28;20025;-46
2021/12/11 08:52:08;;;;;;;6.25;4.78;;;24.50;35.90;;;;;;5038182;28;20052;-45
2021/12/11 08:54:35;;;;;;;5.72;4.40;;;24.60;35.80;;;;;;5029847;28;20123;-44
2021/12/11 08:57:06;;;;;;;5.90;4.53;;;24.60;35.60;;;;;;5029147;28;20045;-46
2021/12/11 08:59:34;;;;;;;6.80;5.15;;;24.70;35.70;;;;;;5034560;28;20546;-47
2021/12/11 09:02:25;;;;;;;6.18;4.82;;;24.70;35.50;;;;;;5029706;28;20032;-46
2021/12/11 09:05:13;;;;;;;6.07;4.35;;;24.70;35.50;;;;;;5012157;28;20056;-45
2021/12/11 09:07:49;;;;;;;6.25;4.75;;;24.80;35.40;;;;;;5024813;28;20104;-45
2021/12/11 09:10:26;;;;;;;6.40;4.45;;;24.80;35.30;;;;;;5028688;28;20053;-45
2021/12/11 09:13:00;;;;;;;6.38;4.32;;;24.80;35.30;;;;;;5029558;28;20029;-45
2021/12/11 09:15:37;;;;;;;6.82;4.57;;;24.90;35.20;;;;;;5028552;28;20056;-45
2021/12/11 09:18:10;;;;;;;5.40;4.03;;;24.90;35.20;;;;;;5028679;28;20441;-45
2021/12/11 09:20:45;;;;;;;6.88;4.88;;;24.90;35.10;;;;;;5037742;28;20029;-45
2021/12/11 09:23:24;;;;;;;5.97;4.60;;;24.90;35.20;;;;;;5031393;28;20021;-45
2021/12/11 09:26:00;;;;;;;6.88;5.00;;;25.00;35.40;;;;;;5032102;28;20449;-45
2021/12/11 09:28:32;;;;;;;6.55;4.43;;;25.00;35.60;;;;;;5026242;28;20512;-45
2021/12/11 09:31:19;;;;;;;5.53;4.28;;;25.00;35.80;;;;;;5036623;28;20035;-45
2021/12/11 09:33:59;;;;;;;5.95;4.47;;;25.00;35.90;;;;;;5029098;28;20171;-45
2021/12/11 09:36:30;;;;;;;7.50;4.32;;;25.10;35.60;;;;;;5025000;28;20464;-47
2021/12/11 09:39:24;;;;;;;6.22;4.78;;;25.10;35.40;;;;;;5024366;28;20581;-47
2021/12/11 09:41:49;;;;;;;6.25;5.10;;;25.10;35.40;;;;;;5024756;28;20093;-47
2021/12/11 09:44:33;;;;;;;5.80;4.57;;;25.10;35.20;;;;;;5024814;28;20075;-47
2021/12/11 09:47:08;;;;;;;7.55;4.63;;;25.20;35.10;;;;;;5025749;28;20136;-46
2021/12/11 09:49:52;;;;;;;6.18;4.43;;;25.20;35.10;;;;;;5026175;28;20589;-46
2021/12/11 09:52:23;;;;;;;6.20;4.57;;;25.20;35.10;;;;;;5025931;28;20033;-45
2021/12/11 09:55:08;;;;;;;7.38;5.38;;;25.20;34.90;;;;;;5025509;28;20033;-46
2021/12/11 09:57:39;;;;;;;6.57;5.25;;;25.30;34.90;;;;;;5006604;28;20426;-45
2021/12/11 10:00:12;;;;;;;6.45;4.90;;;25.30;34.90;;;;;;5008656;28;20034;-45
2021/12/11 10:02:39;;;;;;;6.20;4.63;;;25.30;34.80;;;;;;5024293;28;20025;-45
2021/12/11 10:05:33;;;;;;;7.80;5.10;;;25.30;34.70;;;;;;5025607;28;20021;-45
2021/12/11 10:11:10;;;;;;;6.07;4.55;;;25.30;34.70;;;;;;5025493;28;20018;-45
2021/12/11 10:13:42;;;;;;;5.70;4.50;;;25.40;34.70;;;;;;5025607;28;20033;-46
2021/12/11 10:16:08;;;;;;;7.47;5.40;;;25.40;34.70;;;;;;5025203;28;20045;-47
2021/12/11 10:18:34;;;;;;;7.07;5.45;;;25.40;34.80;;;;;;5025444;28;20029;-47
2021/12/11 10:21:06;;;;;;;6.68;4.68;;;25.40;34.90;;;;;;5024263;28;20022;-46
2021/12/11 10:23:35;;;;;;;8.13;5.82;;;25.40;34.90;;;;;;5025301;28;20412;-46
2021/12/11 10:26:07;;;;;;;12.55;7.30;;;25.50;35.00;;;;;;5025241;28;20151;-46
2021/12/11 10:28:33;;;;;;;12.27;7.72;;;25.50;34.90;;;;;;5024714;28;20104;-46
2021/12/11 10:31:12;;;;;;;10.88;7.63;;;25.50;34.70;;;;;;5025601;28;20167;-47
2021/12/11 10:33:38;;;;;;;12.07;8.23;;;25.50;34.70;;;;;;5025229;28;20131;-47
2021/12/11 10:36:08;;;;;;;14.48;8.38;;;25.60;34.30;;;;;;5025242;28;20029;-46
2021/12/11 10:38:35;;;;;;;10.57;7.90;;;25.60;34.10;;;;;;5024256;28;20682;-47
2021/12/11 10:41:05;;;;;;;10.13;7.30;;;25.60;34.00;;;;;;5013135;28;20022;-45
2021/12/11 10:43:42;;;;;;;10.73;7.57;;;25.60;34.00;;;;;;5003811;28;20193;-46
2021/12/11 10:46:14;;;;;;;12.70;7.57;;;25.60;34.00;;;;;;5004516;28;20030;-46
2021/12/11 10:48:42;;;;;;;9.47;7.73;;;25.70;34.10;;;;;;5005002;28;20041;-48
2021/12/11 10:51:16;;;;;;;8.70;6.45;;;25.70;34.40;;;;;;5034900;28;20276;-47
2021/12/11 10:53:46;;;;;;;9.93;6.78;;;25.70;34.70;;;;;;5043954;28;20036;-46
2021/12/11 10:56:13;;;;;;;9.98;7.32;;;25.70;34.70;;;;;;5021448;28;20120;-47
2021/12/11 10:58:43;;;;;;;8.70;7.45;;;25.80;35.00;;;;;;5024430;28;20034;-45
2021/12/11 11:01:11;;;;;;;9.18;7.75;;;25.80;34.80;;;;;;5023400;28;20126;-47
2021/12/11 11:03:41;;;;;;;9.75;7.40;;;25.80;34.80;;;;;;5004990;28;20022;-45
2021/12/11 11:06:07;;;;;;;8.55;7.30;;;25.90;34.90;;;;;;5024051;28;20696;-48
2021/12/11 11:08:34;;;;;;;8.63;6.68;;;25.90;34.60;;;;;;5023232;28;20026;-47
2021/12/11 11:11:10;;;;;;;7.07;6.32;;;26.00;34.80;;;;;;5021217;28;20546;-46
2021/12/11 11:13:36;;;;;;;8.75;6.38;;;26.00;34.60;;;;;;5022494;28;20021;-46
2021/12/11 11:16:03;;;;;;;7.65;6.13;;;26.00;34.50;;;;;;5024840;28;20032;-46
2021/12/11 11:18:30;;;;;;;8.90;7.30;;;26.00;34.60;;;;;;5023077;28;20075;-45
2021/12/11 11:21:06;;;;;;;8.40;6.70;;;26.00;34.40;;;;;;5021861;28;20018;-47
2021/12/11 11:23:32;;;;;;;7.97;6.18;;;26.00;34.40;;;;;;5023939;28;20018;-45
2021/12/11 11:26:00;;;;;;;8.27;6.38;;;26.00;34.40;;;;;;5020726;28;20033;-46
2021/12/11 11:28:30;;;;;;;8.45;6.57;;;26.00;35.10;;;;;;5020130;28;20025;-46
2021/12/11 11:31:18;;;;;;;8.48;6.93;;;26.00;34.50;;;;;;5020649;28;20022;-46
2021/12/11 11:33:46;;;;;;;9.15;6.90;;;26.00;34.60;;;;;;5024331;28;20029;-45
2021/12/11 11:36:17;;;;;;;8.45;7.15;;;26.00;34.50;;;;;;5022556;28;20037;-45
2021/12/11 11:38:49;;;;;;;8.85;7.22;;;26.00;34.50;;;;;;5023121;28;20817;-46
2021/12/11 11:41:25;;;;;;;8.77;7.00;;;26.00;34.30;;;;;;5023869;28;20033;-45
2021/12/11 11:43:52;;;;;;;8.35;6.40;;;26.00;34.30;;;;;;5024422;28;20056;-45
2021/12/11 11:46:18;;;;;;;8.07;6.85;;;26.00;34.30;;;;;;5023866;28;20041;-45
2021/12/11 11:48:48;;;;;;;7.55;6.35;;;26.00;34.30;;;;;;5023351;28;20037;-45
2021/12/11 11:51:27;;;;;;;8.43;6.68;;;25.90;33.90;;;;;;5023736;28;20079;-45
2021/12/11 11:53:53;;;;;;;7.22;5.85;;;25.90;33.80;;;;;;5022169;28;20029;-46
2021/12/11 11:56:23;;;;;;;10.48;7.57;;;25.90;33.60;;;;;;5024262;28;20045;-46
2021/12/11 11:58:49;;;;;;;8.57;7.13;;;25.90;33.70;;;;;;5022379;28;20040;-46
2021/12/11 12:01:25;;;;;;;9.30;7.28;;;25.90;33.50;;;;;;5023969;28;20033;-46
2021/12/11 12:03:51;;;;;;;7.82;6.60;;;25.90;33.60;;;;;;5022591;28;20022;-45
2021/12/11 12:06:25;;;;;;;8.40;6.43;;;25.90;34.20;;;;;;5023262;28;20025;-46
2021/12/11 12:08:55;;;;;;;8.18;6.68;;;25.90;33.60;;;;;;5022621;28;20533;-45
2021/12/11 12:11:24;;;;;;;8.73;6.63;;;25.90;33.50;;;;;;5024079;28;20030;-45
2021/12/11 12:13:51;;;;;;;7.90;6.45;;;25.90;33.50;;;;;;5022403;28;20597;-45
2021/12/11 12:16:17;;;;;;;8.77;7.22;;;25.90;33.50;;;;;;5023934;28;20709;-45
2021/12/11 12:18:44;;;;;;;8.70;6.78;;;25.90;33.50;;;;;;5023053;28;20626;-45
2021/12/11 12:21:13;;;;;;;10.82;7.07;;;25.90;33.50;;;;;;5023575;28;20028;-46
2021/12/11 12:23:39;;;;;;;8.63;6.88;;;25.90;33.50;;;;;;5023505;28;20032;-46
2021/12/11 12:26:11;;;;;;;8.00;6.57;;;25.80;33.50;;;;;;5022097;28;20642;-45
2021/12/11 12:28:37;;;;;;;8.27;6.47;;;25.80;33.40;;;;;;5023944;28;20501;-45
2021/12/11 12:31:28;;;;;;;8.02;6.78;;;25.80;33.40;;;;;;5022219;28;20041;-45
2021/12/11 12:33:55;;;;;;;8.27;7.07;;;25.80;33.40;;;;;;5020891;28;20045;-46
2021/12/11 12:36:22;;;;;;;8.95;7.00;;;25.80;34.00;;;;;;5020977;28;20029;-46
2021/12/11 12:38:49;;;;;;;9.38;6.60;;;25.80;33.40;;;;;;5022428;28;20036;-46
2021/12/11 12:41:25;;;;;;;8.52;6.18;;;25.80;33.40;;;;;;5019148;28;20037;-46
2021/12/11 12:44:17;;;;;;;7.90;6.50;;;25.80;33.40;;;;;;5023367;28;20686;-46
2021/12/11 12:46:56;;;;;;;8.50;6.45;;;25.70;33.40;;;;;;5023074;28;20029;-46
2021/12/11 12:49:25;;;;;;;8.70;6.45;;;25.70;33.50;;;;;;5004342;28;20041;-45
2021/12/11 12:51:52;;;;;;;7.78;6.50;;;25.70;33.50;;;;;;5042488;28;20032;-47
2021/12/11 12:54:20;;;;;;;7.53;6.47;;;25.70;33.50;;;;;;5022323;28;20037;-46
2021/12/11 12:57:07;;;;;;;8.45;6.95;;;25.70;33.40;;;;;;5021684;28;20366;-47
2021/12/11 12:59:36;;;;;;;8.48;6.57;;;25.70;33.50;;;;;;5019963;28;20033;-46
2021/12/11 13:02:05;;;;;;;8.98;6.78;;;25.70;33.50;;;;;;5020866;28;20422;-46
2021/12/11 13:04:38;;;;;;;8.38;7.05;;;25.70;33.40;;;;;;5021385;28;20025;-46
2021/12/11 13:07:08;;;;;;;7.78;6.85;;;25.70;33.50;;;;;;5021550;28;20083;-47
2021/12/11 13:09:48;;;;;;;6.93;5.95;;;25.70;33.50;;;;;;5018565;28;20022;-47
2021/12/11 13:12:17;;;;;;;8.43;7.18;;;25.70;33.50;;;;;;5025015;28;20061;-46
2021/12/11 13:14:45;;;;;;;8.38;6.85;;;25.70;33.50;;;;;;5023110;28;20025;-48
2021/12/11 13:17:15;;;;;;;7.47;5.95;;;25.60;33.50;;;;;;5025518;28;20029;-47
2021/12/11 13:19:46;;;;;;;7.60;5.82;;;25.70;33.50;;;;;;5022557;28;20029;-47
2021/12/11 13:22:40;;;;;;;8.40;6.80;;;25.70;33.60;;;;;;5025438;28;20570;-47